createdAt,value
2022-12-18T00:00:18.480Z,0
2022-12-18T00:05:18.426Z,0
2022-12-18T00:10:15.571Z,0
2022-12-18T00:15:15.506Z,0
2022-12-18T00:20:15.420Z,0
2022-12-18T00:25:15.407Z,0
2022-12-18T00:30:15.530Z,0
2022-12-18T00:35:18.444Z,0
2022-12-18T00:40:15.480Z,0
2022-12-18T00:45:18.494Z,0
2022-12-18T00:50:18.471Z,0
2022-12-18T00:55:18.499Z,0
2022-12-18T01:00:18.398Z,0
2022-12-18T01:05:18.429Z,0
2022-12-18T01:10:15.441Z,0
2022-12-18T01:15:18.499Z,0
2022-12-18T01:20:18.505Z,0
2022-12-18T01:25:15.526Z,0
2022-12-18T01:30:18.490Z,0
2022-12-18T01:35:18.403Z,0
2022-12-18T01:40:18.435Z,0
2022-12-18T01:45:18.427Z,0
2022-12-18T01:50:15.484Z,0
2022-12-18T01:55:18.481Z,0
2022-12-18T02:00:18.419Z,0
2022-12-18T02:05:18.497Z,0
2022-12-18T02:10:18.449Z,0
2022-12-18T02:15:18.455Z,0
2022-12-18T02:20:18.461Z,0
2022-12-18T02:25:18.516Z,0
2022-12-18T02:30:15.286Z,0
2022-12-18T02:35:18.516Z,0
2022-12-18T02:40:18.433Z,0
2022-12-18T02:45:18.469Z,0
2022-12-18T02:50:15.509Z,0
2022-12-18T02:55:15.470Z,0
2022-12-18T03:00:18.519Z,0
2022-12-18T03:05:18.508Z,0
2022-12-18T03:10:18.503Z,0
2022-12-18T03:15:18.497Z,0
2022-12-18T03:20:18.495Z,0
2022-12-18T03:25:18.505Z,0
2022-12-18T03:30:18.491Z,0
2022-12-18T03:35:18.457Z,0
2022-12-18T03:40:18.551Z,0
2022-12-18T03:45:18.490Z,0
2022-12-18T03:50:15.540Z,0
2022-12-18T03:55:15.597Z,0
2022-12-18T04:00:18.587Z,0
2022-12-18T04:05:18.530Z,0
2022-12-18T04:10:18.520Z,0
2022-12-18T04:15:18.507Z,0
2022-12-18T04:20:18.476Z,0
2022-12-18T04:25:18.514Z,0
2022-12-18T04:30:15.510Z,0
2022-12-18T04:35:15.564Z,0
2022-12-18T04:40:15.581Z,0
2022-12-18T04:45:15.586Z,0
2022-12-18T04:50:15.612Z,0
2022-12-18T04:55:18.599Z,0
2022-12-18T05:00:16.788Z,0
2022-12-18T05:05:16.824Z,0
2022-12-18T05:10:19.855Z,0
2022-12-18T05:15:19.823Z,0
2022-12-18T05:20:19.796Z,0
2022-12-18T05:25:19.774Z,0
2022-12-18T05:30:19.735Z,0
2022-12-18T05:35:16.796Z,0
2022-12-18T05:40:19.782Z,0
2022-12-18T05:45:16.832Z,0
2022-12-18T05:50:19.834Z,0
2022-12-18T05:55:16.830Z,0
2022-12-18T06:00:16.850Z,0
2022-12-18T06:05:16.840Z,0
2022-12-18T06:10:19.835Z,0
2022-12-18T06:15:19.843Z,0
2022-12-18T06:20:19.795Z,0
2022-12-18T06:25:19.889Z,0
2022-12-18T06:30:19.827Z,0
2022-12-18T06:35:19.869Z,0
2022-12-18T06:40:19.871Z,0
2022-12-18T06:45:19.802Z,0
2022-12-18T06:50:16.694Z,0
2022-12-18T06:55:19.851Z,0
2022-12-18T07:00:19.876Z,0
2022-12-18T07:05:16.950Z,0
2022-12-18T07:10:16.859Z,0
2022-12-18T07:15:16.858Z,0
2022-12-18T07:20:19.939Z,0
2022-12-18T07:25:19.934Z,0
2022-12-18T07:30:16.883Z,0
2022-12-18T07:35:24.741Z,0
2022-12-18T07:40:19.799Z,0
2022-12-18T07:45:16.977Z,0
2022-12-18T07:50:19.911Z,0
2022-12-18T07:55:16.869Z,0
2022-12-18T08:00:19.973Z,0
2022-12-18T08:05:16.930Z,0
2022-12-18T08:10:19.895Z,0
2022-12-18T08:15:19.884Z,0
2022-12-18T08:20:19.967Z,0
2022-12-18T08:25:19.851Z,0
2022-12-18T08:30:19.948Z,0
2022-12-18T08:35:19.933Z,0
2022-12-18T08:40:16.897Z,0
2022-12-18T08:45:16.905Z,0
2022-12-18T08:50:16.911Z,0
2022-12-18T08:55:19.930Z,0
2022-12-18T09:00:16.984Z,0
2022-12-18T09:05:16.983Z,0
2022-12-18T09:10:19.894Z,0
2022-12-18T09:15:19.927Z,0
2022-12-18T09:20:19.876Z,0
2022-12-18T09:25:19.902Z,0
2022-12-18T09:30:19.933Z,0
2022-12-18T09:35:19.965Z,0
2022-12-18T09:40:19.938Z,0
2022-12-18T09:45:19.904Z,0
2022-12-18T09:50:19.923Z,0
2022-12-18T09:55:19.976Z,0
2022-12-18T10:00:17.033Z,0
2022-12-18T10:05:16.932Z,0
2022-12-18T10:10:19.976Z,0
2022-12-18T10:15:19.964Z,0
2022-12-18T10:20:20.041Z,0
2022-12-18T10:25:19.919Z,0
2022-12-18T10:30:20.093Z,0
2022-12-18T10:35:19.937Z,0
2022-12-18T10:40:22.663Z,0
2022-12-18T10:45:19.909Z,0
2022-12-18T10:50:19.976Z,0
2022-12-18T10:55:19.917Z,0
2022-12-18T11:00:17.010Z,0
2022-12-18T11:05:16.995Z,0
2022-12-18T11:10:17.057Z,0
2022-12-18T11:15:17.025Z,0
2022-12-18T11:20:20.031Z,0
2022-12-18T11:25:32.448Z,0
2022-12-18T11:30:19.951Z,0
2022-12-18T11:35:20.000Z,0
2022-12-18T11:40:19.981Z,0
2022-12-18T11:45:19.992Z,0
2022-12-18T11:50:19.940Z,0
2022-12-18T11:55:19.935Z,0
2022-12-18T12:00:19.978Z,0
2022-12-18T12:05:20.001Z,0
2022-12-18T12:10:20.044Z,0
2022-12-18T12:15:20.036Z,0
2022-12-18T12:20:20.005Z,3
2022-12-18T12:25:20.020Z,5
2022-12-18T12:30:20.013Z,7
2022-12-18T12:35:17.070Z,8
2022-12-18T12:40:49.768Z,9
2022-12-18T12:45:17.018Z,12
2022-12-18T12:50:19.975Z,18
2022-12-18T12:55:20.027Z,19
2022-12-18T13:00:19.997Z,20
2022-12-18T13:05:17.006Z,22
2022-12-18T13:10:17.465Z,25
2022-12-18T13:15:20.017Z,26
2022-12-18T13:20:20.005Z,31
2022-12-18T13:25:19.997Z,40
2022-12-18T13:30:20.006Z,58
2022-12-18T13:35:17.025Z,74
2022-12-18T13:40:20.019Z,84
2022-12-18T13:45:20.262Z,82
2022-12-18T13:50:20.050Z,76
2022-12-18T13:55:20.021Z,68
2022-12-18T14:00:20.017Z,82
2022-12-18T14:05:20.018Z,90
2022-12-18T14:10:42.240Z,99
2022-12-18T14:15:20.067Z,96
2022-12-18T14:20:17.074Z,96
2022-12-18T14:25:17.124Z,111
2022-12-18T14:30:20.049Z,109
2022-12-18T14:35:20.034Z,99
2022-12-18T14:40:17.123Z,114
2022-12-18T14:45:17.092Z,270
2022-12-18T14:50:17.011Z,289
2022-12-18T14:55:17.070Z,298
2022-12-18T15:00:20.023Z,309
2022-12-18T15:05:20.057Z,321
2022-12-18T15:10:27.725Z,323
2022-12-18T15:15:16.683Z,323
2022-12-18T17:15:20.171Z,151
2022-12-18T17:20:17.120Z,136
2022-12-18T17:25:16.959Z,128
2022-12-18T17:30:20.200Z,144
2022-12-18T17:35:20.111Z,240
2022-12-18T17:40:20.095Z,129
2022-12-18T17:45:20.127Z,168
2022-12-18T17:50:17.189Z,163
2022-12-18T17:55:17.159Z,114
2022-12-18T18:00:20.195Z,110
2022-12-18T18:05:17.152Z,103
2022-12-18T18:10:17.156Z,65
2022-12-18T18:15:17.200Z,73
2022-12-18T18:20:22.807Z,65
2022-12-18T18:25:20.122Z,60
2022-12-18T18:30:17.175Z,56
2022-12-18T18:35:52.343Z,58
2022-12-18T18:40:20.094Z,37
2022-12-18T18:45:17.131Z,34
2022-12-18T18:50:20.128Z,45
2022-12-18T18:55:25.715Z,34
2022-12-18T19:00:20.162Z,30
2022-12-18T19:05:20.176Z,43
2022-12-18T19:10:20.120Z,60
2022-12-18T19:15:20.149Z,60
2022-12-18T19:20:20.149Z,50
2022-12-18T19:25:20.163Z,37
2022-12-18T19:30:20.185Z,27
2022-12-18T19:35:20.137Z,39
2022-12-18T19:40:20.182Z,49
2022-12-18T19:45:17.179Z,49
2022-12-18T19:50:20.242Z,43
2022-12-18T19:55:20.179Z,29
2022-12-18T20:00:18.950Z,35
2022-12-18T20:05:17.194Z,33
2022-12-18T20:10:20.194Z,44
2022-12-18T20:15:20.182Z,68
2022-12-18T20:20:20.147Z,50
2022-12-18T20:25:20.195Z,47
2022-12-18T20:30:17.192Z,43
2022-12-18T20:35:20.192Z,46
2022-12-18T20:40:17.237Z,48
2022-12-18T20:45:17.359Z,36
2022-12-18T20:50:20.292Z,12
2022-12-18T20:55:20.367Z,9
2022-12-18T21:00:20.200Z,7
2022-12-18T21:05:20.210Z,5
2022-12-18T21:10:20.202Z,4
2022-12-18T21:15:17.292Z,0
2022-12-18T21:20:20.213Z,0
2022-12-18T21:25:20.226Z,0
2022-12-18T21:30:20.198Z,0
2022-12-18T21:35:17.250Z,0
2022-12-18T21:40:20.308Z,0
2022-12-18T21:45:17.235Z,0
2022-12-18T21:50:17.253Z,0
2022-12-18T21:55:17.312Z,0
2022-12-18T22:00:20.231Z,0
2022-12-18T22:05:17.212Z,0
2022-12-18T22:10:20.248Z,0
2022-12-18T22:15:21.300Z,0
2022-12-18T22:20:17.293Z,0
2022-12-18T22:25:20.384Z,0
2022-12-18T22:30:20.225Z,0
2022-12-18T22:35:20.249Z,0
2022-12-18T22:40:23.870Z,0
2022-12-18T22:45:17.281Z,0
2022-12-18T22:50:20.293Z,0
2022-12-18T22:55:17.329Z,0
2022-12-18T23:00:24.330Z,0
2022-12-18T23:05:17.315Z,0
2022-12-18T23:10:20.327Z,0
2022-12-18T23:15:18.401Z,0
2022-12-18T23:20:20.343Z,0
2022-12-18T23:25:20.351Z,0
2022-12-18T23:30:20.276Z,0
2022-12-18T23:35:20.407Z,0
2022-12-18T23:40:20.309Z,0
2022-12-18T23:45:20.370Z,0
2022-12-18T23:50:24.012Z,0
2022-12-18T23:55:20.298Z,0
